createdAt,value
2023-05-06T00:00:54.101Z,15.15
2023-05-06T00:03:21.438Z,16.25
2023-05-06T00:05:49.398Z,16.40
2023-05-06T00:08:17.278Z,15.60
2023-05-06T00:10:46.026Z,15.23
2023-05-06T00:13:14.742Z,15.38
2023-05-06T00:15:41.918Z,15.70
2023-05-06T00:18:09.193Z,14.45
2023-05-06T00:20:36.490Z,15.02
2023-05-06T00:23:03.604Z,15.15
2023-05-06T00:25:30.650Z,15.77
2023-05-06T00:27:57.572Z,17.30
2023-05-06T00:30:25.800Z,17.08
2023-05-06T00:32:54.957Z,20.98
2023-05-06T00:35:22.066Z,19.80
2023-05-06T00:37:58.478Z,32.20
2023-05-06T00:40:25.595Z,44.08
2023-05-06T00:42:52.625Z,32.40
2023-05-06T00:45:19.577Z,23.63
2023-05-06T00:47:46.837Z,20.15
2023-05-06T00:50:14.079Z,20.67
2023-05-06T00:52:41.292Z,19.75
2023-05-06T00:55:09.708Z,20.30
2023-05-06T00:57:37.691Z,21.40
2023-05-06T01:03:28.977Z,19.77
2023-05-06T01:06:01.891Z,18.08
2023-05-06T01:08:47.631Z,19.17
2023-05-06T01:11:40.059Z,16.42
2023-05-06T01:14:18.308Z,15.85
2023-05-06T01:16:50.479Z,15.95
2023-05-06T01:19:34.984Z,17.90
2023-05-06T01:22:05.327Z,16.67
2023-05-06T01:24:43.664Z,17.17
2023-05-06T01:27:12.921Z,16.73
2023-05-06T01:29:46.702Z,16.63
2023-05-06T01:32:19.764Z,17.70
2023-05-06T01:35:08.948Z,16.73
2023-05-06T01:37:46.724Z,17.17
2023-05-06T01:40:16.839Z,15.93
2023-05-06T01:42:47.801Z,16.58
2023-05-06T01:45:17.146Z,17.08
2023-05-06T01:47:46.998Z,16.25
2023-05-06T01:50:14.527Z,17.15
2023-05-06T01:52:41.794Z,17.15
2023-05-06T01:55:09.782Z,16.02
2023-05-06T01:57:36.945Z,14.90
2023-05-06T02:00:04.451Z,13.15
2023-05-06T02:02:39.302Z,13.80
2023-05-06T02:05:08.676Z,12.70
2023-05-06T02:07:40.429Z,12.60
2023-05-06T02:10:11.628Z,12.55
2023-05-06T02:12:42.416Z,12.02
2023-05-06T02:15:10.099Z,12.35
2023-05-06T02:17:38.700Z,12.60
2023-05-06T02:20:06.509Z,12.70
2023-05-06T02:22:33.622Z,12.73
2023-05-06T02:25:01.272Z,12.43
2023-05-06T02:27:28.344Z,13.38
2023-05-06T02:29:55.692Z,12.80
2023-05-06T02:32:22.909Z,12.70
2023-05-06T02:34:49.927Z,11.50
2023-05-06T02:37:16.979Z,11.38
2023-05-06T02:39:44.131Z,11.10
2023-05-06T02:42:15.035Z,11.35
2023-05-06T02:44:42.533Z,11.10
2023-05-06T02:47:09.629Z,11.57
2023-05-06T02:49:39.234Z,11.82
2023-05-06T02:52:09.637Z,13.13
2023-05-06T02:54:39.517Z,12.85
2023-05-06T02:57:06.666Z,13.90
2023-05-06T02:59:35.872Z,13.63
2023-05-06T03:02:03.381Z,14.40
2023-05-06T03:04:30.908Z,14.05
2023-05-06T03:06:58.192Z,14.00
2023-05-06T03:09:25.332Z,15.07
2023-05-06T03:11:52.448Z,14.13
2023-05-06T03:14:20.896Z,13.45
2023-05-06T03:16:48.092Z,12.95
2023-05-06T03:19:16.065Z,13.20
2023-05-06T03:21:44.824Z,13.60
2023-05-06T03:24:12.135Z,13.73
2023-05-06T03:26:42.183Z,13.50
2023-05-06T03:29:11.765Z,13.27
2023-05-06T03:31:42.743Z,13.70
2023-05-06T03:34:11.437Z,11.57
2023-05-06T03:36:38.673Z,13.40
2023-05-06T03:39:05.983Z,13.23
2023-05-06T03:41:35.189Z,11.82
2023-05-06T03:44:02.479Z,12.27
2023-05-06T03:46:32.008Z,12.50
2023-05-06T03:49:00.955Z,12.93
2023-05-06T03:51:31.218Z,13.18
2023-05-06T03:53:58.472Z,11.70
2023-05-06T03:56:25.599Z,12.13
2023-05-06T03:58:55.292Z,12.60
2023-05-06T04:01:24.812Z,12.48
2023-05-06T04:03:52.950Z,12.43
2023-05-06T04:06:20.233Z,13.25
2023-05-06T04:08:47.729Z,11.95
2023-05-06T04:11:15.160Z,13.57
2023-05-06T04:13:42.853Z,13.23
2023-05-06T04:16:14.804Z,13.55
2023-05-06T04:18:47.672Z,12.68
2023-05-06T04:21:19.017Z,12.23
2023-05-06T04:23:52.824Z,13.48
2023-05-06T04:26:25.365Z,14.38
2023-05-06T04:28:52.445Z,14.00
2023-05-06T04:31:19.755Z,13.82
2023-05-06T04:33:50.133Z,14.50
2023-05-06T04:36:21.604Z,14.48
2023-05-06T04:39:10.579Z,13.80
2023-05-06T04:41:38.736Z,14.65
2023-05-06T04:44:06.464Z,14.30
2023-05-06T04:46:34.292Z,15.90
2023-05-06T04:49:02.985Z,15.20
2023-05-06T04:51:31.802Z,15.02
2023-05-06T04:53:59.902Z,14.70
2023-05-06T04:56:27.059Z,16.00
2023-05-06T04:58:54.415Z,16.35
2023-05-06T05:01:22.651Z,16.98
2023-05-06T05:03:53.031Z,16.25
2023-05-06T05:06:21.868Z,16.38
2023-05-06T05:08:48.998Z,15.85
2023-05-06T05:11:16.820Z,16.63
2023-05-06T05:13:43.913Z,16.92
2023-05-06T05:16:11.265Z,15.88
2023-05-06T05:18:41.452Z,17.42
2023-05-06T05:21:16.016Z,17.05
2023-05-06T05:23:43.612Z,18.65
2023-05-06T05:26:11.697Z,16.50
2023-05-06T05:28:40.076Z,17.40
2023-05-06T05:31:09.644Z,17.42
2023-05-06T05:33:37.792Z,16.77
2023-05-06T05:36:08.628Z,16.75
2023-05-06T05:38:40.438Z,15.88
2023-05-06T05:41:08.651Z,15.70
2023-05-06T05:43:36.154Z,16.52
2023-05-06T05:46:03.799Z,16.42
2023-05-06T05:48:32.973Z,16.15
2023-05-06T05:51:02.755Z,16.48
2023-05-06T05:53:30.010Z,15.55
2023-05-06T05:55:59.825Z,16.75
2023-05-06T05:58:27.177Z,17.08
2023-05-06T06:00:57.575Z,19.02
2023-05-06T06:03:25.263Z,19.10
2023-05-06T06:05:55.295Z,19.70
2023-05-06T06:08:28.639Z,20.70
2023-05-06T06:11:09.047Z,19.25
2023-05-06T06:13:53.712Z,17.42
2023-05-06T06:16:27.549Z,16.30
2023-05-06T06:19:00.571Z,17.77
2023-05-06T06:21:35.751Z,17.73
2023-05-06T06:24:13.186Z,17.13
2023-05-06T06:26:48.482Z,19.02
2023-05-06T06:29:16.698Z,18.17
2023-05-06T06:31:44.060Z,16.73
2023-05-06T06:34:12.944Z,19.08
2023-05-06T06:36:45.503Z,19.50
2023-05-06T06:39:20.309Z,18.65
2023-05-06T06:41:51.484Z,19.08
2023-05-06T06:44:18.705Z,19.05
2023-05-06T06:46:57.102Z,20.20
2023-05-06T06:49:33.877Z,20.02
2023-05-06T06:52:03.952Z,19.98
2023-05-06T06:54:43.173Z,20.60
2023-05-06T06:57:21.876Z,22.05
2023-05-06T06:59:57.298Z,21.13
2023-05-06T07:02:36.449Z,19.27
2023-05-06T07:05:17.943Z,20.73
2023-05-06T07:07:56.567Z,20.75
2023-05-06T07:10:34.990Z,20.90
2023-05-06T07:13:16.885Z,19.50
2023-05-06T07:15:53.102Z,19.05
2023-05-06T07:18:33.776Z,21.25
2023-05-06T07:21:32.388Z,21.80
2023-05-06T07:24:09.162Z,18.73
2023-05-06T07:26:44.914Z,18.70
2023-05-06T07:29:25.268Z,19.15
2023-05-06T07:32:01.101Z,18.42
2023-05-06T07:34:50.295Z,18.58
2023-05-06T07:37:34.463Z,16.88
2023-05-06T07:40:21.955Z,17.70
2023-05-06T07:43:00.077Z,17.77
2023-05-06T07:45:33.362Z,16.60
2023-05-06T07:48:11.549Z,15.48
2023-05-06T07:50:47.660Z,13.73
2023-05-06T07:53:31.301Z,14.68
2023-05-06T07:56:04.993Z,12.95
2023-05-06T07:58:51.516Z,12.45
2023-05-06T08:01:26.526Z,12.15
2023-05-06T08:04:04.793Z,10.02
2023-05-06T08:06:41.251Z,11.05
2023-05-06T08:09:19.697Z,10.52
2023-05-06T08:12:19.193Z,12.00
2023-05-06T08:14:58.494Z,13.18
2023-05-06T08:17:40.679Z,12.48
2023-05-06T08:20:25.204Z,13.00
2023-05-06T08:23:12.263Z,13.27
2023-05-06T08:26:14.897Z,13.05
2023-05-06T08:29:02.082Z,13.43
2023-05-06T08:31:46.071Z,12.68
2023-05-06T08:34:26.809Z,13.85
2023-05-06T08:37:08.076Z,12.73
2023-05-06T08:39:50.407Z,12.80
2023-05-06T08:42:46.872Z,13.25
2023-05-06T08:45:23.746Z,13.45
2023-05-06T08:48:07.016Z,12.23
2023-05-06T08:50:43.364Z,10.63
2023-05-06T08:53:21.817Z,12.07
2023-05-06T08:56:27.556Z,10.85
2023-05-06T08:59:09.658Z,10.25
2023-05-06T09:01:53.745Z,9.90
2023-05-06T09:04:36.943Z,10.32
2023-05-06T09:07:25.889Z,12.73
2023-05-06T09:10:11.333Z,10.95
2023-05-06T09:12:48.027Z,10.90
2023-05-06T09:15:24.258Z,11.25
2023-05-06T09:18:00.970Z,10.93
2023-05-06T09:20:39.673Z,11.15
2023-05-06T09:23:21.105Z,10.63
2023-05-06T09:25:53.815Z,10.65
2023-05-06T09:28:37.164Z,11.15
2023-05-06T09:31:39.948Z,10.80
2023-05-06T09:34:28.437Z,11.45
2023-05-06T09:37:28.304Z,8.90
2023-05-06T09:40:04.618Z,8.70
2023-05-06T09:42:35.423Z,10.25
2023-05-06T09:45:21.095Z,9.50
2023-05-06T09:48:04.731Z,8.50
2023-05-06T09:50:46.223Z,8.10
2023-05-06T09:53:35.802Z,7.00
2023-05-06T09:56:27.304Z,6.63
2023-05-06T09:59:09.542Z,7.95
2023-05-06T10:01:52.713Z,7.88
2023-05-06T10:04:29.992Z,7.38
2023-05-06T10:07:13.885Z,7.95
2023-05-06T10:12:36.955Z,5.57
2023-05-06T10:15:27.359Z,4.85
2023-05-06T10:18:08.283Z,6.30
2023-05-06T10:20:49.783Z,5.75
2023-05-06T10:23:53.853Z,6.63
2023-05-06T10:29:17.960Z,5.30
2023-05-06T10:32:02.250Z,4.07
2023-05-06T10:34:56.758Z,4.25
2023-05-06T10:37:29.315Z,4.90
2023-05-06T10:40:00.965Z,4.90
2023-05-06T10:42:34.590Z,5.90
2023-05-06T10:45:04.494Z,6.30
2023-05-06T10:47:56.331Z,6.05
2023-05-06T10:50:28.031Z,6.55
2023-05-06T10:53:01.212Z,6.05
2023-05-06T10:55:33.765Z,5.15
2023-05-06T10:58:04.448Z,5.70
2023-05-06T11:00:33.210Z,5.95
2023-05-06T11:03:09.372Z,5.90
2023-05-06T11:05:52.763Z,6.03
2023-05-06T11:08:27.678Z,4.45
2023-05-06T11:10:55.404Z,3.60
2023-05-06T11:13:29.380Z,4.20
2023-05-06T11:16:00.390Z,4.15
2023-05-06T11:18:49.483Z,4.38
2023-05-06T11:21:34.589Z,4.60
2023-05-06T11:24:04.959Z,4.50
2023-05-06T11:26:49.924Z,5.43
2023-05-06T11:29:38.073Z,4.20
2023-05-06T11:32:23.696Z,5.88
2023-05-06T11:35:11.821Z,5.00
2023-05-06T11:37:48.071Z,5.38
2023-05-06T11:40:17.291Z,4.38
2023-05-06T11:43:26.264Z,4.85
2023-05-06T11:46:00.804Z,4.38
2023-05-06T11:48:33.748Z,7.00
2023-05-06T11:51:19.087Z,7.10
2023-05-06T11:54:17.566Z,6.00
2023-05-06T11:57:18.631Z,7.80
2023-05-06T12:00:08.989Z,6.75
2023-05-06T12:02:49.410Z,6.18
2023-05-06T12:05:23.757Z,7.28
2023-05-06T12:08:41.081Z,7.82
2023-05-06T12:11:16.363Z,6.22
2023-05-06T12:13:58.737Z,5.53
2023-05-06T12:16:35.775Z,6.30
2023-05-06T12:19:06.370Z,6.88
2023-05-06T12:21:42.821Z,6.07
2023-05-06T12:24:11.074Z,9.20
2023-05-06T12:26:55.878Z,7.10
2023-05-06T12:29:29.787Z,8.38
2023-05-06T12:32:25.036Z,5.68
2023-05-06T12:34:59.888Z,7.75
2023-05-06T12:37:36.181Z,7.50
2023-05-06T12:40:12.046Z,8.05
2023-05-06T12:43:03.692Z,10.07
2023-05-06T12:45:38.114Z,10.60
2023-05-06T12:48:35.445Z,10.05
2023-05-06T12:51:31.171Z,7.65
2023-05-06T12:54:05.580Z,9.48
2023-05-06T12:56:36.659Z,8.00
2023-05-06T12:59:09.210Z,6.03
2023-05-06T13:01:42.388Z,7.70
2023-05-06T13:04:12.719Z,5.80
2023-05-06T13:06:49.070Z,7.18
2023-05-06T13:09:26.170Z,7.28
2023-05-06T13:12:02.747Z,6.45
2023-05-06T13:14:44.803Z,6.30
2023-05-06T13:17:18.033Z,8.30
2023-05-06T13:19:51.359Z,7.25
2023-05-06T13:22:23.980Z,6.68
2023-05-06T13:24:54.870Z,6.33
2023-05-06T13:27:33.441Z,5.90
2023-05-06T13:30:07.709Z,5.78
2023-05-06T13:32:38.223Z,5.35
2023-05-06T13:35:10.576Z,4.60
2023-05-06T13:37:41.410Z,5.47
2023-05-06T13:40:15.184Z,3.63
2023-05-06T13:42:56.434Z,4.03
2023-05-06T13:45:35.393Z,3.33
2023-05-06T13:48:05.323Z,3.53
2023-05-06T13:50:46.020Z,4.30
2023-05-06T13:53:26.590Z,3.63
2023-05-06T13:56:21.289Z,4.05
2023-05-06T13:59:07.194Z,3.55
2023-05-06T14:01:46.938Z,3.53
2023-05-06T14:04:19.472Z,3.80
2023-05-06T14:07:01.508Z,4.38
2023-05-06T14:09:46.710Z,4.72
2023-05-06T14:15:11.526Z,3.22
2023-05-06T14:17:49.711Z,2.92
2023-05-06T14:20:27.950Z,3.35
2023-05-06T14:23:00.523Z,3.45
2023-05-06T14:25:30.964Z,2.50
2023-05-06T14:31:05.935Z,2.40
2023-05-06T14:33:50.595Z,2.45
2023-05-06T14:36:31.314Z,2.20
2023-05-06T14:41:42.385Z,2.70
2023-05-06T14:46:48.015Z,3.40
2023-05-06T14:49:15.366Z,4.10
2023-05-06T14:51:48.077Z,4.25
2023-05-06T14:54:38.374Z,3.80
2023-05-06T14:57:31.971Z,4.97
2023-05-06T15:00:07.546Z,4.35
2023-05-06T15:02:42.629Z,4.65
2023-05-06T15:05:24.820Z,4.20
2023-05-06T15:08:01.023Z,5.28
2023-05-06T15:10:41.585Z,4.43
2023-05-06T15:13:25.317Z,5.22
2023-05-06T15:18:33.768Z,5.32
2023-05-06T15:21:01.754Z,4.53
2023-05-06T15:23:31.469Z,5.78
2023-05-06T15:26:06.629Z,4.43
2023-05-06T15:28:37.581Z,5.10
2023-05-06T15:31:12.778Z,3.87
2023-05-06T15:33:48.011Z,4.28
2023-05-06T15:36:23.744Z,4.45
2023-05-06T15:39:13.719Z,4.45
2023-05-06T15:41:56.166Z,5.75
2023-05-06T15:44:23.501Z,6.13
2023-05-06T15:46:50.696Z,8.13
2023-05-06T15:52:01.031Z,7.47
2023-05-06T15:54:50.439Z,6.22
2023-05-06T16:00:13.678Z,5.45
2023-05-06T16:02:47.154Z,5.47
2023-05-06T16:05:14.486Z,4.43
2023-05-06T16:07:43.992Z,4.93
2023-05-06T16:10:16.530Z,3.85
2023-05-06T16:12:57.972Z,4.75
2023-05-06T16:15:38.462Z,4.60
2023-05-06T16:18:25.218Z,5.82
2023-05-06T16:20:56.841Z,4.40
2023-05-06T16:23:26.907Z,5.03
2023-05-06T16:26:00.378Z,5.00
2023-05-06T16:30:56.177Z,5.65
2023-05-06T16:33:26.071Z,5.40
2023-05-06T16:35:59.427Z,6.93
2023-05-06T16:38:27.362Z,6.15
2023-05-06T16:41:03.300Z,5.68
2023-05-06T16:43:33.381Z,4.85
2023-05-06T16:46:00.929Z,4.95
2023-05-06T16:48:30.661Z,5.72
2023-05-06T16:51:04.896Z,4.68
2023-05-06T16:53:45.499Z,4.85
2023-05-06T16:56:13.540Z,4.97
2023-05-06T16:58:46.032Z,5.72
2023-05-06T17:01:18.255Z,5.53
2023-05-06T17:03:46.192Z,6.18
2023-05-06T17:06:13.919Z,5.38
2023-05-06T17:08:44.211Z,4.97
2023-05-06T17:11:23.324Z,5.55
2023-05-06T17:13:50.786Z,5.18
2023-05-06T17:16:20.783Z,5.97
2023-05-06T17:18:50.786Z,4.88
2023-05-06T17:21:18.669Z,5.72
2023-05-06T17:23:52.875Z,5.50
2023-05-06T17:26:25.694Z,5.88
2023-05-06T17:28:52.908Z,4.63
2023-05-06T17:31:20.368Z,5.13
2023-05-06T17:33:53.557Z,4.78
2023-05-06T17:36:34.881Z,5.03
2023-05-06T17:39:10.399Z,4.82
2023-05-06T17:41:37.800Z,4.30
2023-05-06T17:44:06.798Z,5.97
2023-05-06T17:46:34.066Z,5.82
2023-05-06T17:49:03.879Z,4.85
2023-05-06T17:51:31.769Z,5.13
2023-05-06T17:53:59.733Z,4.65
2023-05-06T17:56:29.751Z,6.32
2023-05-06T17:59:06.747Z,5.43
2023-05-06T18:01:41.445Z,5.25
2023-05-06T18:04:10.968Z,4.95
2023-05-06T18:06:38.638Z,4.82
2023-05-06T18:09:06.152Z,5.25
2023-05-06T18:11:37.507Z,5.20
2023-05-06T18:14:08.980Z,5.03
2023-05-06T18:16:37.919Z,5.00
2023-05-06T18:19:05.424Z,5.82
2023-05-06T18:21:38.129Z,5.18
2023-05-06T18:24:17.279Z,5.03
2023-05-06T18:26:51.411Z,5.20
2023-05-06T18:29:30.281Z,5.85
2023-05-06T18:32:06.841Z,6.88
2023-05-06T18:34:37.497Z,6.20
2023-05-06T18:37:07.888Z,6.10
2023-05-06T18:39:45.745Z,6.82
2023-05-06T18:42:13.085Z,5.95
2023-05-06T18:44:53.759Z,6.57
2023-05-06T18:47:27.363Z,5.88
2023-05-06T18:50:02.834Z,6.47
2023-05-06T18:52:32.672Z,6.57
2023-05-06T18:55:00.084Z,6.30
2023-05-06T18:57:27.838Z,6.32
2023-05-06T18:59:58.200Z,7.30
2023-05-06T19:02:26.965Z,6.65
2023-05-06T19:04:56.908Z,6.43
2023-05-06T19:07:27.084Z,6.53
2023-05-06T19:10:00.876Z,6.95
2023-05-06T19:12:40.591Z,6.10
2023-05-06T19:15:08.746Z,7.63
2023-05-06T19:17:39.428Z,6.85
2023-05-06T19:20:09.784Z,7.72
2023-05-06T19:22:37.099Z,6.72
2023-05-06T19:25:04.529Z,7.70
2023-05-06T19:27:35.150Z,8.00
2023-05-06T19:30:05.104Z,8.23
2023-05-06T19:32:33.104Z,7.40
2023-05-06T19:35:08.372Z,7.88
2023-05-06T19:37:36.079Z,7.95
2023-05-06T19:40:06.884Z,7.82
2023-05-06T19:42:37.236Z,7.63
2023-05-06T19:45:09.038Z,8.90
2023-05-06T19:47:36.393Z,8.32
2023-05-06T19:50:06.199Z,9.07
2023-05-06T19:52:34.830Z,8.43
2023-05-06T19:55:03.400Z,8.65
2023-05-06T19:57:34.141Z,7.68
2023-05-06T20:00:05.983Z,7.70
2023-05-06T20:02:33.941Z,7.40
2023-05-06T20:05:01.018Z,8.68
2023-05-06T20:07:30.607Z,8.48
2023-05-06T20:09:58.751Z,9.07
2023-05-06T20:12:29.181Z,8.75
2023-05-06T20:14:56.824Z,9.85
2023-05-06T20:17:26.647Z,9.38
2023-05-06T20:19:58.757Z,9.90
2023-05-06T20:22:26.596Z,9.57
2023-05-06T20:24:54.092Z,9.05
2023-05-06T20:27:21.497Z,8.38
2023-05-06T20:29:50.043Z,8.63
2023-05-06T20:32:17.305Z,8.32
2023-05-06T20:34:44.348Z,8.68
2023-05-06T20:37:12.111Z,8.05
2023-05-06T20:39:39.282Z,9.00
2023-05-06T20:42:09.939Z,9.18
2023-05-06T20:44:41.421Z,10.10
2023-05-06T20:47:12.679Z,8.30
2023-05-06T20:49:40.046Z,8.13
2023-05-06T20:52:08.214Z,7.57
2023-05-06T20:54:35.306Z,7.53
2023-05-06T20:57:05.282Z,7.20
2023-05-06T20:59:32.437Z,9.18
2023-05-06T21:01:59.713Z,8.75
2023-05-06T21:04:27.028Z,7.65
2023-05-06T21:06:54.090Z,8.23
2023-05-06T21:09:23.840Z,6.97
2023-05-06T21:11:51.782Z,6.00
2023-05-06T21:14:19.131Z,4.88
2023-05-06T21:16:46.181Z,5.15
2023-05-06T21:19:13.497Z,5.22
2023-05-06T21:21:40.611Z,4.97
2023-05-06T21:24:08.713Z,5.75
2023-05-06T21:26:35.896Z,4.90
2023-05-06T21:29:02.957Z,5.20
2023-05-06T21:31:30.457Z,4.50
2023-05-06T21:33:58.989Z,5.45
2023-05-06T21:36:26.331Z,5.70
2023-05-06T21:39:08.127Z,5.50
2023-05-06T21:41:36.256Z,4.93
2023-05-06T21:44:04.707Z,4.90
2023-05-06T21:46:32.668Z,6.05
2023-05-06T21:48:59.985Z,4.40
2023-05-06T21:51:35.309Z,4.47
2023-05-06T21:54:03.130Z,4.03
2023-05-06T21:56:30.839Z,5.25
2023-05-06T21:59:01.300Z,5.45
2023-05-06T22:01:31.397Z,5.32
2023-05-06T22:04:01.883Z,5.25
2023-05-06T22:06:31.757Z,5.32
2023-05-06T22:09:00.199Z,5.85
2023-05-06T22:11:27.386Z,5.20
2023-05-06T22:13:54.396Z,5.70
2023-05-06T22:16:22.338Z,5.28
2023-05-06T22:18:49.586Z,5.43
2023-05-06T22:21:16.882Z,4.90
2023-05-06T22:23:44.751Z,4.25
2023-05-06T22:26:13.452Z,5.20
2023-05-06T22:28:42.290Z,4.97
2023-05-06T22:31:10.016Z,4.95
2023-05-06T22:33:37.068Z,5.78
2023-05-06T22:36:04.512Z,6.47
2023-05-06T22:38:32.686Z,6.20
2023-05-06T22:41:04.544Z,7.75
2023-05-06T22:43:36.108Z,6.35
2023-05-06T22:46:04.064Z,6.88
2023-05-06T22:48:34.981Z,7.47
2023-05-06T22:51:05.921Z,6.93
2023-05-06T22:53:33.027Z,7.18
2023-05-06T22:56:00.180Z,7.68
2023-05-06T22:58:27.242Z,6.35
2023-05-06T23:00:55.080Z,6.25
2023-05-06T23:03:25.288Z,6.57
2023-05-06T23:05:52.531Z,6.43
2023-05-06T23:08:19.756Z,6.32
2023-05-06T23:10:47.081Z,6.20
2023-05-06T23:13:16.568Z,6.00
2023-05-06T23:15:43.715Z,5.30
2023-05-06T23:18:11.640Z,5.22
2023-05-06T23:20:38.874Z,4.55
2023-05-06T23:23:08.920Z,4.68
2023-05-06T23:25:36.269Z,4.88
2023-05-06T23:28:03.643Z,4.50
2023-05-06T23:30:30.944Z,5.28
2023-05-06T23:32:58.225Z,5.28
2023-05-06T23:35:26.298Z,5.65
2023-05-06T23:37:53.426Z,5.10
2023-05-06T23:40:23.722Z,4.82
2023-05-06T23:42:50.762Z,4.90
2023-05-06T23:45:17.780Z,5.60
2023-05-06T23:47:44.846Z,5.15
2023-05-06T23:50:12.656Z,5.00
2023-05-06T23:52:41.043Z,5.05
2023-05-06T23:55:08.627Z,5.00
2023-05-06T23:57:39.071Z,5.55
